This is the latest recevied weather packets stored in our database for station/object YO7ZRO-13. If no packets are shown the sender has not sent any weather packets the latest 10 day(s).
| Time | Temp. | Humidity | Pressure | Rain* | Wind** | Luminosity | Snow |
|---|---|---|---|---|---|---|---|
| 1787825321 | 28.89° C | 28% | 1019.2 hPa | - | - | - | - |
| 1787825262 | 28.89° C | 28% | 1019.2 hPa | - | - | - | - |
| 1787825201 | 28.89° C | 28% | 1019.1 hPa | - | - | - | - |
| 1787825141 | 28.89° C | 28% | 1019.1 hPa | - | - | - | - |
| 1787825080 | 28.89° C | 29% | 1019.1 hPa | - | - | - | - |
| 1787825021 | 28.89° C | 29% | 1019.1 hPa | - | - | - | - |
| 1787824960 | 28.89° C | 29% | 1019 hPa | - | - | - | - |
| 1787824901 | 28.89° C | 29% | 1019 hPa | - | - | - | - |
| 1787824840 | 30° C | 27% | 1019 hPa | - | - | - | - |
| 1787824781 | 30° C | 27% | 1019 hPa | - | - | - | - |
| 1787824720 | 30.56° C | 26% | 1019 hPa | - | - | - | - |
| 1787824661 | 30.56° C | 26% | 1019 hPa | - | - | - | - |
| 1787824600 | 30° C | 26% | 1019.1 hPa | - | - | - | - |
| 1787824541 | 30° C | 26% | 1019.1 hPa | - | - | - | - |
| 1787824481 | 30° C | 28% | 1019.1 hPa | - | - | - | - |
| 1787824421 | 30° C | 28% | 1019.1 hPa | - | - | - | - |
| 1787824360 | 31.67° C | 25% | 1019 hPa | - | - | - | - |
| 1787824301 | 31.67° C | 25% | 1019 hPa | - | - | - | - |
| 1787824240 | 31.11° C | 26% | 1018.9 hPa | - | - | - | - |
| 1787824181 | 31.11° C | 26% | 1018.9 hPa | - | - | - | - |
| 1787824121 | 30.56° C | 26% | 1019.1 hPa | - | - | - | - |
| 1787824060 | 30.56° C | 26% | 1019.1 hPa | - | - | - | - |
| 1787824001 | 30° C | 28% | 1019.2 hPa | - | - | - | - |
| 1787823941 | 30° C | 28% | 1019.2 hPa | - | - | - | - |
| 1787823882 | 30° C | 28% | 1019.2 hPa | - | - | - | - |
* Rain since midnight (hover to see other rain measurements)
** Current wind speed in m/s (hover to see current wind gust speed)